createdAt,value
2023-04-17T00:00:51.684Z,25.00
2023-04-17T00:01:50.746Z,25.00
2023-04-17T00:02:51.875Z,24.42
2023-04-17T00:03:51.988Z,25.00
2023-04-17T00:04:51.924Z,24.99
2023-04-17T00:05:51.882Z,25.00
2023-04-17T00:06:51.903Z,23.71
2023-04-17T00:07:51.963Z,23.87
2023-04-17T00:08:51.966Z,28.28
2023-04-17T00:09:51.961Z,31.94
2023-04-17T00:11:04.209Z,25.00
2023-04-17T00:11:52.005Z,9.55
2023-04-17T00:12:52.074Z,22.51
2023-04-17T00:13:52.046Z,27.49
2023-04-17T00:14:52.036Z,28.82
2023-04-17T00:15:52.066Z,20.75
2023-04-17T00:16:52.204Z,28.25
2023-04-17T00:17:52.189Z,36.24
2023-04-17T00:18:52.159Z,51.08
2023-04-17T00:19:53.287Z,60.61
2023-04-17T00:20:52.163Z,62.63
2023-04-17T00:21:52.177Z,59.88
2023-04-17T00:22:52.174Z,49.70
2023-04-17T00:23:52.169Z,40.60
2023-04-17T00:24:52.173Z,23.96
2023-04-17T00:25:52.175Z,26.11
2023-04-17T00:26:52.198Z,24.36
2023-04-17T00:27:52.186Z,22.59
2023-04-17T00:28:52.267Z,22.33
2023-04-17T00:29:52.239Z,25.00
2023-04-17T00:30:52.249Z,24.94
2023-04-17T00:31:52.391Z,25.00
2023-04-17T00:32:52.420Z,26.89
2023-04-17T00:33:52.465Z,37.50
2023-04-17T00:34:54.507Z,40.49
2023-04-17T00:35:52.547Z,40.79
2023-04-17T00:36:52.548Z,43.39
2023-04-17T00:37:52.582Z,50.16
2023-04-17T00:38:52.570Z,60.32
2023-04-17T00:39:52.614Z,76.95
2023-04-17T00:40:52.579Z,87.56
2023-04-17T00:41:52.573Z,93.49
2023-04-17T00:42:52.597Z,98.43
2023-04-17T00:43:52.559Z,100.18
2023-04-17T00:44:52.554Z,99.47
2023-04-17T00:45:52.627Z,104.42
2023-04-17T00:46:52.528Z,107.92
2023-04-17T00:47:52.523Z,108.72
2023-04-17T00:48:52.507Z,106.30
2023-04-17T00:49:52.488Z,98.91
2023-04-17T00:50:52.487Z,85.83
2023-04-17T00:51:52.472Z,94.38
2023-04-17T00:52:52.467Z,94.96
2023-04-17T00:53:52.458Z,80.08
2023-04-17T00:54:52.434Z,71.71
2023-04-17T00:55:52.435Z,60.91
2023-04-17T00:56:52.419Z,57.57
2023-04-17T00:57:52.423Z,27.56
2023-04-17T00:58:52.453Z,25.00
2023-04-17T00:59:52.413Z,26.24
2023-04-17T01:00:52.394Z,19.06
2023-04-17T01:01:52.536Z,58.24
2023-04-17T01:02:52.495Z,54.75
2023-04-17T01:03:52.586Z,24.75
2023-04-17T01:04:52.423Z,35.89
2023-04-17T01:05:52.362Z,54.24
2023-04-17T01:06:52.362Z,58.32
2023-04-17T01:07:52.372Z,22.20
2023-04-17T01:08:52.351Z,24.95
2023-04-17T01:09:52.343Z,28.88
2023-04-17T01:10:52.357Z,47.86
2023-04-17T01:11:52.354Z,60.00
2023-04-17T01:12:52.318Z,74.75
2023-04-17T01:13:52.305Z,75.70
2023-04-17T01:14:52.301Z,83.44
2023-04-17T01:15:52.303Z,89.18
2023-04-17T01:16:52.329Z,94.28
2023-04-17T01:17:52.420Z,109.09
2023-04-17T01:18:52.279Z,107.61
2023-04-17T01:19:52.278Z,95.49
2023-04-17T01:20:52.257Z,89.75
2023-04-17T01:21:52.243Z,90.36
2023-04-17T01:22:52.241Z,83.02
2023-04-17T01:23:52.257Z,96.61
2023-04-17T01:24:52.209Z,102.81
2023-04-17T01:25:52.197Z,76.67
2023-04-17T01:26:52.234Z,70.20
2023-04-17T01:27:52.302Z,74.30
2023-04-17T01:28:52.365Z,66.81
2023-04-17T01:29:52.422Z,43.95
2023-04-17T01:30:52.482Z,25.00
2023-04-17T01:31:52.524Z,36.37
2023-04-17T01:32:52.618Z,25.00
2023-04-17T01:33:52.681Z,14.80
2023-04-17T01:34:52.742Z,25.00
2023-04-17T01:35:52.782Z,25.00
2023-04-17T01:36:52.836Z,27.30
2023-04-17T01:37:52.900Z,34.96
2023-04-17T01:38:52.956Z,35.80
2023-04-17T01:39:53.027Z,48.72
2023-04-17T01:40:53.156Z,47.84
2023-04-17T01:41:53.155Z,54.43
2023-04-17T01:42:53.219Z,96.60
2023-04-17T01:43:53.285Z,70.78
2023-04-17T01:44:53.355Z,42.62
2023-04-17T01:45:53.421Z,27.47
2023-04-17T01:46:53.413Z,0.00
2023-04-17T01:47:53.421Z,25.00
2023-04-17T01:48:53.412Z,21.45
2023-04-17T01:49:53.437Z,21.55
2023-04-17T01:50:53.453Z,21.65
2023-04-17T01:51:53.464Z,0.44
2023-04-17T01:52:53.442Z,32.35
2023-04-17T01:53:53.500Z,78.19
2023-04-17T01:54:53.526Z,54.57
2023-04-17T01:55:53.604Z,98.49
2023-04-17T01:56:53.641Z,85.46
2023-04-17T01:57:53.694Z,108.11
2023-04-17T01:58:53.738Z,232.81
2023-04-17T01:59:53.749Z,262.52
2023-04-17T02:00:53.823Z,282.73
2023-04-17T02:01:54.046Z,297.28
2023-04-17T02:02:54.057Z,297.22
2023-04-17T02:03:54.436Z,297.93
2023-04-17T02:04:54.189Z,285.34
2023-04-17T02:05:54.238Z,266.67
2023-04-17T02:06:54.259Z,248.53
2023-04-17T02:07:54.336Z,235.75
2023-04-17T02:08:54.473Z,229.31
2023-04-17T02:09:54.504Z,229.78
2023-04-17T02:10:54.594Z,226.75
2023-04-17T02:11:54.666Z,212.03
2023-04-17T02:12:54.725Z,202.45
2023-04-17T02:13:54.778Z,189.73
2023-04-17T02:14:54.818Z,173.41
2023-04-17T02:15:54.894Z,173.06
2023-04-17T02:16:54.917Z,173.17
2023-04-17T02:17:55.045Z,176.97
2023-04-17T02:18:55.067Z,183.56
2023-04-17T02:19:55.122Z,194.12
2023-04-17T02:20:55.164Z,214.24
2023-04-17T02:21:56.355Z,222.15
2023-04-17T02:22:55.247Z,226.59
2023-04-17T02:23:55.281Z,220.00
2023-04-17T02:24:55.306Z,219.98
2023-04-17T02:25:55.334Z,221.67
2023-04-17T02:26:55.364Z,224.99
2023-04-17T02:27:55.376Z,224.32
2023-04-17T02:28:55.415Z,205.05
2023-04-17T02:29:55.407Z,196.56
2023-04-17T02:30:55.495Z,197.12
2023-04-17T02:31:55.452Z,199.21
2023-04-17T02:32:55.528Z,209.87
2023-04-17T02:33:55.489Z,211.82
2023-04-17T02:34:55.504Z,198.03
2023-04-17T02:35:55.501Z,196.34
2023-04-17T02:36:55.501Z,201.61
2023-04-17T02:37:55.550Z,203.80
2023-04-17T02:38:55.517Z,197.93
2023-04-17T02:39:55.536Z,194.83
2023-04-17T02:40:55.551Z,193.56
2023-04-17T02:41:55.559Z,193.11
2023-04-17T02:42:55.615Z,182.08
2023-04-17T02:43:55.579Z,182.49
2023-04-17T02:44:55.587Z,183.15
2023-04-17T02:45:55.611Z,180.86
2023-04-17T02:46:55.639Z,168.86
2023-04-17T02:47:55.718Z,160.08
2023-04-17T02:48:55.669Z,157.25
2023-04-17T02:49:55.665Z,157.58
2023-04-17T02:50:55.691Z,168.59
2023-04-17T02:51:55.685Z,166.20
2023-04-17T02:52:55.707Z,162.92
2023-04-17T02:53:55.738Z,164.65
2023-04-17T02:54:55.717Z,170.32
2023-04-17T02:55:55.717Z,163.72
2023-04-17T02:56:55.717Z,165.72
2023-04-17T02:57:55.728Z,173.56
2023-04-17T02:58:55.769Z,177.67
2023-04-17T02:59:55.824Z,187.15
2023-04-17T03:00:55.914Z,200.64
2023-04-17T03:01:56.074Z,204.90
2023-04-17T03:02:56.167Z,208.02
2023-04-17T03:03:56.614Z,213.67
2023-04-17T03:04:56.157Z,221.17
2023-04-17T03:05:56.219Z,225.86
2023-04-17T03:06:56.335Z,232.80
2023-04-17T03:07:56.352Z,238.72
2023-04-17T03:08:56.399Z,245.01
2023-04-17T03:09:56.495Z,248.75
2023-04-17T03:10:56.530Z,257.64
2023-04-17T03:11:56.612Z,237.66
2023-04-17T03:12:56.668Z,233.22
2023-04-17T03:13:56.729Z,245.80
2023-04-17T03:14:56.752Z,247.67
2023-04-17T03:15:56.846Z,238.00
2023-04-17T03:16:56.966Z,232.07
2023-04-17T03:17:57.076Z,219.68
2023-04-17T03:18:57.036Z,217.43
2023-04-17T03:19:57.136Z,221.79
2023-04-17T03:20:57.201Z,225.24
2023-04-17T03:21:57.265Z,224.18
2023-04-17T03:22:57.305Z,215.82
2023-04-17T03:23:57.326Z,205.39
2023-04-17T03:24:57.360Z,200.66
2023-04-17T03:25:57.441Z,201.09
2023-04-17T03:26:57.486Z,203.11
2023-04-17T03:27:57.532Z,208.10
2023-04-17T03:28:57.592Z,221.09
2023-04-17T03:29:57.653Z,229.50
2023-04-17T03:30:57.719Z,228.29
2023-04-17T03:31:57.861Z,233.26
2023-04-17T03:32:57.863Z,233.86
2023-04-17T03:33:57.898Z,236.59
2023-04-17T03:34:57.949Z,237.89
2023-04-17T03:35:58.006Z,240.48
2023-04-17T03:36:58.064Z,231.51
2023-04-17T03:37:58.158Z,232.56
2023-04-17T03:38:58.198Z,228.03
2023-04-17T03:39:58.256Z,226.65
2023-04-17T03:40:58.334Z,231.14
2023-04-17T03:41:58.400Z,230.43
2023-04-17T03:42:58.479Z,225.80
2023-04-17T03:43:58.492Z,228.40
2023-04-17T03:44:58.563Z,224.81
2023-04-17T03:45:58.670Z,236.03
2023-04-17T03:46:58.656Z,244.07
2023-04-17T03:47:58.807Z,243.89
2023-04-17T03:48:58.761Z,233.27
2023-04-17T03:49:58.846Z,222.35
2023-04-17T03:50:58.847Z,231.99
2023-04-17T03:51:58.897Z,228.22
2023-04-17T03:52:58.980Z,223.24
2023-04-17T03:53:59.012Z,216.39
2023-04-17T03:54:59.057Z,215.83
2023-04-17T03:55:59.129Z,233.41
2023-04-17T03:56:59.182Z,252.05
2023-04-17T03:57:59.206Z,250.00
2023-04-17T03:58:59.234Z,250.00
2023-04-17T03:59:59.281Z,247.45
2023-04-17T04:00:59.353Z,250.00
2023-04-17T04:01:59.497Z,249.88
2023-04-17T04:02:59.624Z,249.46
2023-04-17T04:03:59.555Z,249.38
2023-04-17T04:04:59.597Z,250.02
2023-04-17T04:05:59.601Z,250.00
2023-04-17T04:06:59.555Z,249.40
2023-04-17T04:07:59.587Z,249.80
2023-04-17T04:08:59.616Z,246.15
2023-04-17T04:09:59.665Z,243.36
2023-04-17T04:10:59.683Z,243.57
2023-04-17T04:11:59.718Z,244.08
2023-04-17T04:12:59.769Z,240.50
2023-04-17T04:13:59.844Z,234.78
2023-04-17T04:14:59.906Z,232.10
2023-04-17T04:16:00.153Z,236.88
2023-04-17T04:17:00.048Z,252.86
2023-04-17T04:18:00.158Z,233.94
2023-04-17T04:19:00.152Z,219.89
2023-04-17T04:20:00.219Z,209.88
2023-04-17T04:21:00.355Z,195.98
2023-04-17T04:22:00.349Z,185.86
2023-04-17T04:23:00.370Z,184.36
2023-04-17T04:24:00.399Z,182.66
2023-04-17T04:25:00.444Z,187.22
2023-04-17T04:26:00.499Z,191.18
2023-04-17T04:27:00.509Z,191.78
2023-04-17T04:28:00.560Z,197.20
2023-04-17T04:29:00.616Z,207.66
2023-04-17T04:30:00.670Z,217.07
2023-04-17T04:31:00.740Z,220.77
2023-04-17T04:32:00.720Z,216.51
2023-04-17T04:33:00.845Z,217.02
2023-04-17T04:34:00.840Z,216.72
2023-04-17T04:35:00.906Z,205.67
2023-04-17T04:36:01.273Z,205.62
2023-04-17T04:37:01.041Z,206.47
2023-04-17T04:38:01.117Z,204.17
2023-04-17T04:39:01.167Z,202.95
2023-04-17T04:40:01.208Z,203.55
2023-04-17T04:41:01.282Z,204.12
2023-04-17T04:42:01.339Z,200.87
2023-04-17T04:43:01.412Z,200.43
2023-04-17T04:44:01.522Z,197.17
2023-04-17T04:45:01.592Z,200.49
2023-04-17T04:46:01.714Z,205.37
2023-04-17T04:47:01.802Z,211.07
2023-04-17T04:48:01.698Z,220.01
2023-04-17T04:49:01.724Z,238.38
2023-04-17T04:50:01.701Z,248.86
2023-04-17T04:51:01.721Z,250.00
2023-04-17T04:52:01.733Z,250.48
2023-04-17T04:53:01.767Z,250.00
2023-04-17T04:54:01.785Z,245.77
2023-04-17T04:55:01.870Z,245.26
2023-04-17T04:56:01.810Z,246.17
2023-04-17T04:57:01.853Z,245.64
2023-04-17T04:58:01.884Z,245.29
2023-04-17T04:59:01.865Z,249.60
2023-04-17T05:00:01.981Z,249.96
2023-04-17T05:01:01.991Z,249.95
2023-04-17T05:02:02.053Z,237.90
2023-04-17T05:03:02.200Z,221.27
2023-04-17T05:04:02.223Z,218.22
2023-04-17T05:05:02.158Z,231.16
2023-04-17T05:06:02.075Z,242.88
2023-04-17T05:07:02.107Z,245.47
2023-04-17T05:08:02.059Z,246.08
2023-04-17T05:09:02.159Z,244.95
2023-04-17T05:10:02.057Z,245.16
2023-04-17T05:11:02.141Z,242.54
2023-04-17T05:12:02.067Z,244.97
2023-04-17T05:13:02.076Z,245.99
2023-04-17T05:14:02.096Z,253.99
2023-04-17T05:15:02.123Z,265.01
2023-04-17T05:16:02.248Z,237.41
2023-04-17T05:17:02.161Z,240.32
2023-04-17T05:18:02.229Z,235.59
2023-04-17T05:19:02.157Z,225.22
2023-04-17T05:20:02.145Z,210.73
2023-04-17T05:21:02.190Z,218.27
2023-04-17T05:22:02.172Z,220.71
2023-04-17T05:23:02.186Z,211.82
2023-04-17T05:24:02.373Z,209.97
2023-04-17T05:25:03.079Z,207.19
2023-04-17T05:26:02.568Z,205.09
2023-04-17T05:27:02.686Z,198.58
2023-04-17T05:28:03.052Z,186.25
2023-04-17T05:29:04.076Z,182.32
2023-04-17T05:30:03.999Z,170.87
2023-04-17T05:31:02.826Z,169.17
2023-04-17T05:32:03.121Z,170.98
2023-04-17T05:33:02.765Z,170.29
2023-04-17T05:34:03.032Z,171.33
2023-04-17T05:35:06.636Z,187.24
2023-04-17T05:36:05.099Z,187.76
2023-04-17T05:37:03.306Z,189.77
2023-04-17T05:38:03.426Z,190.63
2023-04-17T05:39:02.806Z,193.59
2023-04-17T05:40:02.851Z,196.85
2023-04-17T05:41:03.939Z,202.00
2023-04-17T05:42:04.580Z,205.74
2023-04-17T05:43:03.651Z,223.52
2023-04-17T05:44:03.751Z,224.10
2023-04-17T05:45:03.243Z,225.63
2023-04-17T05:46:03.214Z,230.20
2023-04-17T05:47:02.993Z,237.96
2023-04-17T05:48:03.114Z,243.58
2023-04-17T05:49:02.970Z,244.12
2023-04-17T05:50:02.032Z,247.64
2023-04-17T05:51:02.961Z,250.89
2023-04-17T05:52:03.469Z,250.00
2023-04-17T05:53:04.653Z,250.00
2023-04-17T05:54:04.223Z,252.00
2023-04-17T05:55:02.907Z,252.27
2023-04-17T05:56:03.113Z,254.49
2023-04-17T05:57:03.963Z,261.59
2023-04-17T05:58:16.891Z,278.57
2023-04-17T05:59:03.279Z,253.67
2023-04-17T06:00:34.986Z,262.34
2023-04-17T06:01:06.837Z,254.54
2023-04-17T06:02:03.476Z,255.13
2023-04-17T06:03:03.300Z,266.29
2023-04-17T06:04:03.511Z,283.64
2023-04-17T06:05:03.951Z,307.45
2023-04-17T06:06:03.355Z,336.59
2023-04-17T06:07:03.109Z,331.68
2023-04-17T06:08:06.870Z,316.03
2023-04-17T06:09:03.545Z,306.94
2023-04-17T06:10:03.034Z,298.00
2023-04-17T06:11:03.701Z,291.32
2023-04-17T06:12:03.034Z,288.27
2023-04-17T06:13:02.944Z,283.74
2023-04-17T06:14:05.078Z,264.55
2023-04-17T06:15:08.085Z,247.69
2023-04-17T06:16:03.052Z,245.97
2023-04-17T06:17:03.807Z,239.60
2023-04-17T06:18:05.090Z,235.10
2023-04-17T06:19:03.193Z,234.35
2023-04-17T06:20:03.282Z,237.58
2023-04-17T06:21:03.589Z,240.02
2023-04-17T06:22:08.719Z,235.36
2023-04-17T06:23:03.100Z,235.44
2023-04-17T06:24:03.053Z,235.04
2023-04-17T06:25:03.060Z,230.71
2023-04-17T06:26:03.313Z,225.45
2023-04-17T06:27:03.562Z,223.50
2023-04-17T06:28:15.410Z,222.43
2023-04-17T06:29:13.257Z,222.52
2023-04-17T06:30:08.794Z,222.58
2023-04-17T06:31:05.723Z,222.57
2023-04-17T06:32:09.685Z,221.37
2023-04-17T06:33:10.282Z,212.30
2023-04-17T06:34:09.864Z,208.59
2023-04-17T06:35:04.266Z,211.75
2023-04-17T06:36:06.746Z,209.67
2023-04-17T06:37:05.873Z,209.59
2023-04-17T06:38:03.267Z,208.49
2023-04-17T06:39:08.050Z,202.52
2023-04-17T06:40:03.988Z,200.50
2023-04-17T06:41:17.712Z,203.04
2023-04-17T06:42:30.584Z,25.00
2023-04-17T06:43:35.797Z,25.00
2023-04-17T06:44:26.082Z,25.00
2023-04-17T06:45:34.658Z,25.00
2023-04-17T06:46:26.903Z,25.00
2023-04-17T06:47:26.289Z,25.00
2023-04-17T06:48:24.499Z,25.00
2023-04-17T06:49:25.668Z,25.00
2023-04-17T06:50:30.209Z,25.00
2023-04-17T06:51:24.546Z,25.00
2023-04-17T06:52:24.933Z,25.00
2023-04-17T06:53:26.548Z,25.00
2023-04-17T06:54:27.421Z,25.00
2023-04-17T06:55:23.232Z,25.00
2023-04-17T06:56:24.887Z,25.00
2023-04-17T06:57:30.800Z,25.00
2023-04-17T06:58:24.965Z,25.00
2023-04-17T06:59:29.381Z,25.00
2023-04-17T07:00:27.612Z,25.00
2023-04-17T07:01:27.951Z,25.00
2023-04-17T07:02:27.987Z,25.00
2023-04-17T07:03:28.692Z,25.00
2023-04-17T07:04:26.554Z,25.00
2023-04-17T07:05:24.372Z,25.00
2023-04-17T07:06:25.086Z,25.00
2023-04-17T07:07:29.588Z,25.00
2023-04-17T07:08:27.417Z,25.00
2023-04-17T07:09:38.832Z,25.00
2023-04-17T07:10:51.729Z,25.00
2023-04-17T07:11:55.236Z,25.00
2023-04-17T07:12:45.780Z,25.00
2023-04-17T07:13:49.235Z,25.00
2023-04-17T07:14:45.178Z,25.00
2023-04-17T07:15:52.754Z,25.00
2023-04-17T07:16:50.548Z,25.00
2023-04-17T07:17:44.274Z,25.00
2023-04-17T07:18:43.418Z,25.00
2023-04-17T07:19:43.245Z,25.00
2023-04-17T07:20:44.289Z,25.00
2023-04-17T07:21:45.303Z,25.00
2023-04-17T07:22:48.305Z,25.00
2023-04-17T07:23:50.238Z,25.00
2023-04-17T07:24:52.343Z,25.00
2023-04-17T07:25:43.781Z,25.00
2023-04-17T07:26:43.883Z,25.00
2023-04-17T07:27:44.698Z,25.00
2023-04-17T07:28:43.974Z,25.00
2023-04-17T07:29:43.510Z,25.00
2023-04-17T07:30:44.610Z,25.00
2023-04-17T07:31:53.301Z,25.00
2023-04-17T07:32:46.781Z,25.00
2023-04-17T07:33:46.215Z,25.00
2023-04-17T07:34:45.113Z,25.00
2023-04-17T07:35:43.545Z,25.00
2023-04-17T07:36:45.093Z,25.00
2023-04-17T07:37:43.654Z,25.00
2023-04-17T07:38:44.215Z,25.00
2023-04-17T07:39:45.172Z,25.00
2023-04-17T07:40:45.715Z,25.00
2023-04-17T07:41:44.538Z,25.00
2023-04-17T07:42:45.718Z,25.00
2023-04-17T07:43:44.484Z,25.00
2023-04-17T07:44:43.621Z,25.00
2023-04-17T07:45:43.953Z,25.00
2023-04-17T07:46:44.414Z,25.00
2023-04-17T07:47:45.088Z,25.00
2023-04-17T07:48:44.870Z,25.00
2023-04-17T07:49:46.728Z,25.00
2023-04-17T07:50:44.910Z,25.00
2023-04-17T07:51:43.551Z,25.00
2023-04-17T07:52:45.726Z,25.00
2023-04-17T07:53:44.187Z,25.00
2023-04-17T07:54:45.978Z,25.00
2023-04-17T07:55:46.211Z,25.00
2023-04-17T07:56:45.050Z,25.00
2023-04-17T07:57:45.486Z,25.00
2023-04-17T07:58:48.148Z,25.00
2023-04-17T07:59:46.667Z,25.00
2023-04-17T08:01:16.999Z,25.00
2023-04-17T08:01:46.083Z,25.00
2023-04-17T08:02:47.856Z,25.00
2023-04-17T08:03:46.962Z,25.00
2023-04-17T08:04:45.369Z,25.00
2023-04-17T08:05:44.735Z,25.00
2023-04-17T08:06:46.732Z,25.00
2023-04-17T08:07:54.720Z,25.00
2023-04-17T08:08:55.458Z,25.00
2023-04-17T08:09:44.944Z,25.00
2023-04-17T08:10:46.028Z,25.00
2023-04-17T08:11:56.179Z,25.00
2023-04-17T08:12:46.723Z,25.00
2023-04-17T08:13:48.728Z,25.00
2023-04-17T08:14:46.768Z,25.00
2023-04-17T08:15:46.728Z,25.00
2023-04-17T08:16:47.777Z,25.00
2023-04-17T08:17:44.909Z,25.00
2023-04-17T08:18:46.381Z,25.00
2023-04-17T08:19:45.107Z,25.00
2023-04-17T08:20:47.092Z,25.00
2023-04-17T08:21:48.779Z,25.00
2023-04-17T08:24:05.481Z,25.00
2023-04-17T08:25:14.520Z,25.00
2023-04-17T08:26:07.111Z,25.00
2023-04-17T08:27:19.928Z,25.00
2023-04-17T08:28:07.148Z,25.00
2023-04-17T08:29:06.900Z,25.00
2023-04-17T08:30:06.165Z,25.00
2023-04-17T08:31:06.104Z,25.00
2023-04-17T08:32:14.745Z,25.00
2023-04-17T08:33:09.367Z,25.00
2023-04-17T08:34:14.535Z,25.00
2023-04-17T08:35:08.060Z,25.00
2023-04-17T08:36:08.602Z,25.00
2023-04-17T08:37:06.790Z,25.00
2023-04-17T08:38:04.345Z,25.00
2023-04-17T08:39:05.854Z,25.00
2023-04-17T08:40:06.784Z,25.00
2023-04-17T08:41:04.218Z,25.00
2023-04-17T08:42:05.207Z,25.00
2023-04-17T08:43:04.445Z,25.00
2023-04-17T08:44:04.376Z,25.00
2023-04-17T08:45:04.713Z,25.00
2023-04-17T08:46:05.264Z,0.00
2023-04-17T08:47:03.998Z,7.31
2023-04-17T08:48:05.280Z,34.34
2023-04-17T08:49:05.623Z,31.85
2023-04-17T08:50:04.993Z,34.34
2023-04-17T08:51:05.708Z,62.41
2023-04-17T08:52:04.476Z,80.90
2023-04-17T08:53:04.548Z,61.44
2023-04-17T08:54:04.996Z,26.53
2023-04-17T08:55:05.415Z,74.27
2023-04-17T08:56:06.887Z,89.13
2023-04-17T08:57:06.792Z,90.21
2023-04-17T08:58:06.802Z,99.73
2023-04-17T08:59:04.877Z,92.28
2023-04-17T09:00:05.056Z,110.08
2023-04-17T09:01:05.502Z,159.98
2023-04-17T09:02:05.373Z,190.59
2023-04-17T09:03:05.302Z,202.17
2023-04-17T09:04:05.348Z,89.98
2023-04-17T09:05:07.316Z,90.14
2023-04-17T09:06:08.099Z,82.27
2023-04-17T09:07:06.627Z,79.50
2023-04-17T09:08:05.366Z,99.57
2023-04-17T09:09:04.476Z,94.26
2023-04-17T09:10:07.793Z,121.46
2023-04-17T09:11:05.792Z,98.44
2023-04-17T09:12:06.792Z,131.93
2023-04-17T09:13:05.389Z,166.10
2023-04-17T09:14:06.792Z,93.09
2023-04-17T09:15:07.421Z,91.47
2023-04-17T09:16:08.100Z,89.67
2023-04-17T09:17:05.184Z,89.93
2023-04-17T09:18:04.851Z,99.24
2023-04-17T09:19:05.099Z,129.47
2023-04-17T09:20:05.307Z,178.77
2023-04-17T09:21:07.431Z,258.97
2023-04-17T09:22:06.792Z,102.47
2023-04-17T09:23:07.422Z,102.47
2023-04-17T09:24:04.768Z,102.46
2023-04-17T09:25:06.452Z,148.87
2023-04-17T09:26:04.489Z,102.45
2023-04-17T09:27:10.474Z,149.87
2023-04-17T09:28:13.058Z,101.03
2023-04-17T09:29:04.288Z,99.67
2023-04-17T09:30:05.165Z,142.49
2023-04-17T09:31:06.026Z,218.37
2023-04-17T09:32:06.195Z,102.46
2023-04-17T09:33:06.806Z,102.47
2023-04-17T09:34:06.127Z,102.45
2023-04-17T09:35:07.448Z,102.45
2023-04-17T09:36:05.978Z,102.46
2023-04-17T09:37:07.075Z,102.45
2023-04-17T09:38:06.806Z,102.45
2023-04-17T09:39:05.565Z,146.57
2023-04-17T09:40:06.047Z,103.97
2023-04-17T09:41:07.045Z,149.11
2023-04-17T09:42:06.047Z,102.44
2023-04-17T09:43:09.442Z,103.98
2023-04-17T09:44:05.808Z,101.01
2023-04-17T09:45:06.810Z,103.96
2023-04-17T09:46:04.614Z,142.46
2023-04-17T09:47:04.885Z,186.99
2023-04-17T09:48:04.714Z,313.46
2023-04-17T09:49:05.960Z,490.20
2023-04-17T09:50:05.691Z,223.13
2023-04-17T09:51:09.194Z,158.83
2023-04-17T09:52:05.070Z,143.68
2023-04-17T09:53:05.362Z,160.46
2023-04-17T09:54:04.536Z,170.86
2023-04-17T09:55:05.077Z,189.33
2023-04-17T09:56:04.739Z,161.71
2023-04-17T09:57:04.660Z,237.32
2023-04-17T09:58:05.169Z,209.36
2023-04-17T09:59:05.021Z,188.30
2023-04-17T10:00:06.589Z,187.13
2023-04-17T10:01:06.912Z,187.63
2023-04-17T10:02:12.693Z,147.79
2023-04-17T10:03:05.856Z,115.93
2023-04-17T10:04:04.622Z,190.32
2023-04-17T10:05:04.719Z,189.32
2023-04-17T10:06:07.870Z,190.13
2023-04-17T10:07:05.162Z,187.81
2023-04-17T10:08:04.256Z,173.38
2023-04-17T10:09:17.389Z,126.71
2023-04-17T10:10:30.344Z,25.00
2023-04-17T10:11:25.147Z,25.00
2023-04-17T10:12:26.108Z,25.00
2023-04-17T10:13:24.112Z,25.00
2023-04-17T10:14:23.974Z,25.00
2023-04-17T10:15:26.944Z,25.00
2023-04-17T10:16:27.167Z,25.00
2023-04-17T10:17:25.929Z,25.00
2023-04-17T10:18:24.949Z,25.00
2023-04-17T10:19:23.959Z,25.00
2023-04-17T10:20:24.469Z,25.00
2023-04-17T10:21:24.081Z,25.00
2023-04-17T10:22:24.236Z,25.00
2023-04-17T10:23:25.343Z,25.00
2023-04-17T10:24:25.528Z,109.37
2023-04-17T10:25:25.428Z,35.37
2023-04-17T10:26:26.499Z,20.96
2023-04-17T10:27:25.209Z,5.20
2023-04-17T10:28:24.751Z,15.18
2023-04-17T10:29:24.944Z,27.71
2023-04-17T10:30:24.568Z,0.00
2023-04-17T10:31:26.232Z,14.34
2023-04-17T10:32:25.265Z,19.73
2023-04-17T10:33:25.675Z,1.40
2023-04-17T10:34:25.056Z,5.72
2023-04-17T10:35:24.992Z,70.29
2023-04-17T10:36:25.152Z,84.53
2023-04-17T10:37:25.607Z,29.09
2023-04-17T10:38:28.489Z,0.00
2023-04-17T10:39:25.119Z,1.66
2023-04-17T10:40:26.793Z,38.98
2023-04-17T10:41:27.528Z,33.58
2023-04-17T10:42:25.929Z,0.39
2023-04-17T10:43:27.611Z,44.64
2023-04-17T10:44:26.317Z,14.94
2023-04-17T10:45:27.801Z,13.09
2023-04-17T10:46:25.502Z,11.34
2023-04-17T10:47:28.386Z,59.33
2023-04-17T10:48:27.040Z,11.66
2023-04-17T10:49:25.281Z,13.55
2023-04-17T10:50:26.058Z,63.97
2023-04-17T10:51:29.468Z,143.54
2023-04-17T10:53:44.794Z,25.00
2023-04-17T10:54:53.098Z,25.00
2023-04-17T10:55:49.123Z,25.00
2023-04-17T10:56:49.287Z,25.00
2023-04-17T10:57:48.420Z,25.00
2023-04-17T10:58:47.716Z,25.00
2023-04-17T10:59:48.571Z,25.00
2023-04-17T11:00:47.026Z,25.00
2023-04-17T11:01:48.776Z,25.00
2023-04-17T11:02:47.025Z,25.00
2023-04-17T11:03:48.435Z,25.00
2023-04-17T11:04:45.936Z,25.00
2023-04-17T11:05:46.220Z,25.00
2023-04-17T11:06:48.026Z,25.00
2023-04-17T11:07:45.382Z,25.00
2023-04-17T11:08:47.035Z,25.00
2023-04-17T11:09:47.028Z,25.00
2023-04-17T11:10:51.589Z,25.00
2023-04-17T11:11:45.610Z,25.00
2023-04-17T11:12:45.311Z,25.00
2023-04-17T11:13:48.637Z,25.00
2023-04-17T11:14:44.537Z,25.00
2023-04-17T11:15:51.090Z,25.00
2023-04-17T11:16:46.951Z,25.00
2023-04-17T11:17:48.229Z,25.00
2023-04-17T11:18:48.928Z,25.00
2023-04-17T11:19:47.569Z,25.00
2023-04-17T11:20:52.411Z,25.00
2023-04-17T11:21:46.040Z,25.00
2023-04-17T11:22:45.036Z,25.00
2023-04-17T11:23:46.047Z,25.00
2023-04-17T11:24:47.036Z,25.00
2023-04-17T11:25:46.114Z,25.00
2023-04-17T11:26:46.033Z,25.00
2023-04-17T11:27:47.112Z,25.00
2023-04-17T11:28:46.033Z,25.00
2023-04-17T11:29:47.033Z,25.00
2023-04-17T11:30:45.241Z,25.00
2023-04-17T11:31:43.938Z,25.00
2023-04-17T11:32:44.520Z,25.00
2023-04-17T11:33:44.704Z,25.00
2023-04-17T11:34:44.984Z,25.00
2023-04-17T11:35:44.308Z,37.25
2023-04-17T11:36:43.909Z,28.06
2023-04-17T11:37:44.246Z,91.66
2023-04-17T11:38:45.185Z,263.49
2023-04-17T11:39:45.035Z,92.01
2023-04-17T11:40:44.486Z,104.09
2023-04-17T11:41:43.588Z,114.43
2023-04-17T11:42:46.251Z,108.77
2023-04-17T11:43:45.238Z,168.69
2023-04-17T11:44:47.021Z,95.32
2023-04-17T11:45:46.120Z,95.99
2023-04-17T11:46:45.617Z,0.00
2023-04-17T11:47:44.527Z,0.00
2023-04-17T11:48:45.269Z,4.27
2023-04-17T11:49:45.064Z,0.00
2023-04-17T11:50:44.068Z,0.00
2023-04-17T11:51:44.514Z,0.00
2023-04-17T11:52:43.521Z,124.57
2023-04-17T11:53:45.071Z,0.00
2023-04-17T11:54:46.036Z,0.00
2023-04-17T11:55:45.123Z,0.00
2023-04-17T11:56:45.038Z,0.00
2023-04-17T11:57:45.103Z,0.00
2023-04-17T11:58:44.041Z,0.00
2023-04-17T11:59:46.051Z,85.24
2023-04-17T12:00:43.044Z,0.00
2023-04-17T12:01:45.043Z,0.00
2023-04-17T12:02:44.202Z,0.00
2023-04-17T12:03:45.598Z,18.54
2023-04-17T12:04:44.258Z,93.21
2023-04-17T12:05:44.109Z,46.24
2023-04-17T12:06:42.652Z,93.92
2023-04-17T12:07:42.241Z,0.00
2023-04-17T12:08:41.782Z,0.00
2023-04-17T12:09:41.673Z,0.00
2023-04-17T12:10:42.237Z,0.00
2023-04-17T12:11:44.043Z,0.00
2023-04-17T12:12:43.041Z,96.54
2023-04-17T12:13:43.049Z,100.78
2023-04-17T12:14:43.057Z,0.00
2023-04-17T12:15:42.046Z,0.00
2023-04-17T12:16:44.093Z,0.00
2023-04-17T12:17:42.064Z,0.00
2023-04-17T12:18:43.045Z,0.00
2023-04-17T12:19:42.047Z,0.00
2023-04-17T12:20:42.136Z,0.00
2023-04-17T12:21:44.056Z,0.00
2023-04-17T12:22:43.045Z,0.00
2023-04-17T12:23:42.046Z,0.00
2023-04-17T12:24:43.046Z,0.00
2023-04-17T12:25:42.053Z,0.00
2023-04-17T12:26:42.051Z,0.00
2023-04-17T12:27:42.051Z,0.00
2023-04-17T12:28:42.047Z,0.00
2023-04-17T12:29:44.523Z,26.12
2023-04-17T12:30:42.089Z,95.24
2023-04-17T12:31:41.135Z,101.94
2023-04-17T12:32:42.105Z,0.00
2023-04-17T12:33:42.053Z,0.00
2023-04-17T12:34:41.111Z,0.00
2023-04-17T12:35:41.050Z,0.00
2023-04-17T12:36:43.058Z,0.00
2023-04-17T12:37:41.053Z,0.00
2023-04-17T12:38:42.052Z,0.00
2023-04-17T12:39:41.055Z,0.00
2023-04-17T12:40:41.051Z,0.00
2023-04-17T12:41:41.062Z,0.00
2023-04-17T12:42:48.611Z,0.00
2023-04-17T12:43:41.052Z,0.00
2023-04-17T12:44:41.056Z,0.00
2023-04-17T12:45:42.387Z,0.00
2023-04-17T12:46:43.053Z,0.00
2023-04-17T12:47:41.122Z,0.00